createdAt,value
2016-10-22T07:21:02.970Z,8.4
2016-10-22T07:22:06.478Z,8.5
2016-10-22T07:23:10.000Z,8.6
2016-10-22T07:24:13.513Z,8.6
2016-10-22T07:25:17.032Z,8.7
2016-10-22T07:26:20.539Z,8.7
2016-10-22T07:27:24.052Z,8.8
2016-10-22T07:28:27.572Z,8.9
2016-10-22T07:29:31.084Z,8.9
2016-10-22T07:30:34.595Z,8.9
2016-10-22T07:31:38.113Z,8.7
2016-10-22T07:32:41.630Z,8.8
2016-10-22T07:33:45.144Z,8.8
2016-10-22T07:34:48.664Z,8.8
2016-10-22T07:35:52.187Z,8.9
2016-10-22T07:36:55.703Z,9
2016-10-22T07:37:59.217Z,9
2016-10-22T07:39:02.742Z,9
2016-10-22T07:40:06.251Z,9
2016-10-22T07:41:09.764Z,9
2016-10-22T07:42:13.277Z,9.1
2016-10-22T07:43:16.802Z,9.1
2016-10-22T07:44:20.320Z,9.2
2016-10-22T07:45:23.836Z,9.3
2016-10-22T07:46:27.353Z,9.2
2016-10-22T07:47:30.866Z,9.3
2016-10-22T07:48:34.387Z,9.2
2016-10-22T07:49:37.900Z,9.3
2016-10-22T07:50:41.418Z,9.4
2016-10-22T07:51:44.937Z,9.5
2016-10-22T07:52:48.452Z,9.5
2016-10-22T07:53:51.965Z,9.5
2016-10-22T07:54:55.480Z,9.6
2016-10-22T07:55:59.001Z,9.6
2016-10-22T07:57:02.517Z,9.8
2016-10-22T07:58:06.030Z,9.9
2016-10-22T07:59:09.546Z,9.9
2016-10-22T08:00:13.067Z,10.1
2016-10-22T08:01:16.582Z,10.1
2016-10-22T08:02:20.103Z,10.1
2016-10-22T08:03:23.625Z,10.1
2016-10-22T08:04:27.146Z,10.2
2016-10-22T08:05:30.668Z,10.1
2016-10-22T08:06:34.178Z,10.2
2016-10-22T08:07:37.696Z,10.3
2016-10-22T08:08:41.212Z,10.3
